createdAt,value
2023-03-16T00:02:19.329Z,53.31
2023-03-16T00:04:47.667Z,53.52
2023-03-16T00:07:15.896Z,53.16
2023-03-16T00:09:43.148Z,52.90
2023-03-16T00:12:15.988Z,53.02
2023-03-16T00:14:48.646Z,52.63
2023-03-16T00:17:20.733Z,52.61
2023-03-16T00:19:51.846Z,52.17
2023-03-16T00:22:19.662Z,52.41
2023-03-16T00:24:46.682Z,52.42
2023-03-16T00:27:15.360Z,52.24
2023-03-16T00:29:48.377Z,52.41
2023-03-16T00:32:19.675Z,52.40
2023-03-16T00:34:48.772Z,52.32
2023-03-16T00:37:17.774Z,52.20
2023-03-16T00:39:47.078Z,51.97
2023-03-16T00:42:16.157Z,51.74
2023-03-16T00:44:43.577Z,51.87
2023-03-16T00:47:14.941Z,51.52
2023-03-16T00:49:43.854Z,51.54
2023-03-16T00:52:15.043Z,51.59
2023-03-16T00:54:47.895Z,51.83
2023-03-16T00:57:19.059Z,51.56
2023-03-16T00:59:52.917Z,51.34
2023-03-16T01:02:37.298Z,51.35
2023-03-16T01:05:29.634Z,51.39
2023-03-16T01:08:31.274Z,51.71
2023-03-16T01:11:18.743Z,51.63
2023-03-16T01:14:19.664Z,51.60
2023-03-16T01:17:19.257Z,51.68
2023-03-16T01:20:02.200Z,51.92
2023-03-16T01:22:30.878Z,51.71
2023-03-16T01:25:06.710Z,51.85
2023-03-16T01:27:39.992Z,52.20
2023-03-16T01:30:16.722Z,52.20
2023-03-16T01:32:56.666Z,51.95
2023-03-16T01:35:25.007Z,52.14
2023-03-16T01:38:13.217Z,52.28
2023-03-16T01:40:56.300Z,52.27
2023-03-16T01:43:35.258Z,52.24
2023-03-16T01:46:08.888Z,52.26
2023-03-16T01:48:53.229Z,52.33
2023-03-16T01:51:53.891Z,52.13
2023-03-16T01:54:37.871Z,51.61
2023-03-16T01:57:17.124Z,51.41
2023-03-16T02:00:09.903Z,51.57
2023-03-16T02:02:56.305Z,51.57
2023-03-16T02:05:38.716Z,51.42
2023-03-16T02:08:08.493Z,51.42
2023-03-16T02:10:37.674Z,51.36
2023-03-16T02:13:05.137Z,51.19
2023-03-16T02:15:32.643Z,51.10
2023-03-16T02:18:00.957Z,51.19
2023-03-16T02:20:52.131Z,51.73
2023-03-16T02:23:21.388Z,51.77
2023-03-16T02:26:34.348Z,51.91
2023-03-16T02:29:23.409Z,51.93
2023-03-16T02:31:52.889Z,51.85
2023-03-16T02:34:20.298Z,51.83
2023-03-16T02:36:49.989Z,51.43
2023-03-16T02:39:20.901Z,51.47
2023-03-16T02:41:48.437Z,51.62
2023-03-16T02:44:29.345Z,51.35
2023-03-16T02:47:03.653Z,51.68
2023-03-16T02:49:45.548Z,51.59
2023-03-16T02:52:12.962Z,51.89
2023-03-16T02:54:40.128Z,51.58
2023-03-16T02:57:09.219Z,51.38
2023-03-16T02:59:36.675Z,50.82
2023-03-16T03:02:04.057Z,51.09
2023-03-16T03:04:33.301Z,50.89
2023-03-16T03:07:04.930Z,51.07
2023-03-16T03:09:43.188Z,50.98
2023-03-16T03:12:11.100Z,51.23
2023-03-16T03:14:38.902Z,51.37
2023-03-16T03:17:10.268Z,51.06
2023-03-16T03:19:37.313Z,51.07
2023-03-16T03:22:06.597Z,51.25
2023-03-16T03:24:35.017Z,50.95
2023-03-16T03:27:06.091Z,50.71
2023-03-16T03:29:36.292Z,50.60
2023-03-16T03:32:05.309Z,50.58
2023-03-16T03:34:33.100Z,50.23
2023-03-16T03:37:01.346Z,50.23
2023-03-16T03:39:29.039Z,50.10
2023-03-16T03:41:57.108Z,49.88
2023-03-16T03:44:25.058Z,49.79
2023-03-16T03:46:53.054Z,50.19
2023-03-16T03:49:20.909Z,50.22
2023-03-16T03:51:52.954Z,50.47
2023-03-16T03:54:25.289Z,50.24
2023-03-16T03:57:12.680Z,50.45
2023-03-16T03:59:43.918Z,50.14
2023-03-16T04:02:14.772Z,49.96
2023-03-16T04:04:50.137Z,49.83
2023-03-16T04:07:20.354Z,50.20
2023-03-16T04:09:49.388Z,50.16
2023-03-16T04:12:24.594Z,50.22
2023-03-16T04:14:52.682Z,50.24
2023-03-16T04:17:21.210Z,50.16
2023-03-16T04:19:50.678Z,50.29
2023-03-16T04:22:18.545Z,50.52
2023-03-16T04:24:47.004Z,50.42
2023-03-16T04:27:14.822Z,50.59
2023-03-16T04:29:42.177Z,50.71
2023-03-16T04:32:09.511Z,50.83
2023-03-16T04:34:38.631Z,50.74
2023-03-16T04:37:06.974Z,50.73
2023-03-16T04:39:36.857Z,50.83
2023-03-16T04:42:04.006Z,50.71
2023-03-16T04:44:34.432Z,50.86
2023-03-16T04:47:01.789Z,50.74
2023-03-16T04:49:36.587Z,51.03
2023-03-16T04:52:04.847Z,51.14
2023-03-16T04:54:33.396Z,50.97
2023-03-16T04:57:01.343Z,51.23
2023-03-16T04:59:34.838Z,51.38
2023-03-16T05:02:10.027Z,51.29
2023-03-16T05:04:37.731Z,51.39
2023-03-16T05:07:06.975Z,51.59
2023-03-16T05:09:39.187Z,51.49
2023-03-16T05:12:07.350Z,51.34
2023-03-16T05:14:36.584Z,51.91
2023-03-16T05:17:19.893Z,51.81
2023-03-16T05:19:47.415Z,52.08
2023-03-16T05:22:16.936Z,51.83
2023-03-16T05:25:07.402Z,52.15
2023-03-16T05:27:35.434Z,52.06
2023-03-16T05:30:05.118Z,52.54
2023-03-16T05:32:33.716Z,52.38
2023-03-16T05:35:00.868Z,52.29
2023-03-16T05:37:28.093Z,52.46
2023-03-16T05:39:55.069Z,52.27
2023-03-16T05:42:22.253Z,52.20
2023-03-16T05:44:55.127Z,52.52
2023-03-16T05:47:37.479Z,52.25
2023-03-16T05:50:11.378Z,52.49
2023-03-16T05:52:42.348Z,52.62
2023-03-16T05:55:17.575Z,52.60
2023-03-16T05:57:49.459Z,52.32
2023-03-16T06:00:19.829Z,52.53
2023-03-16T06:02:54.914Z,52.67
2023-03-16T06:05:26.425Z,52.20
2023-03-16T06:07:53.714Z,52.45
2023-03-16T06:10:21.346Z,52.13
2023-03-16T06:12:48.561Z,51.98
2023-03-16T06:15:15.681Z,51.96
2023-03-16T06:17:42.858Z,52.41
2023-03-16T06:20:13.338Z,52.32
2023-03-16T06:22:43.165Z,51.80
2023-03-16T06:25:12.797Z,51.52
2023-03-16T06:27:41.647Z,51.47
2023-03-16T06:30:15.093Z,51.21
2023-03-16T06:32:43.129Z,51.16
2023-03-16T06:35:11.594Z,51.00
2023-03-16T06:37:43.368Z,50.77
2023-03-16T06:40:39.712Z,51.23
2023-03-16T06:43:07.192Z,50.94
2023-03-16T06:45:34.241Z,50.71
2023-03-16T06:48:01.578Z,51.39
2023-03-16T06:50:29.464Z,50.81
2023-03-16T06:52:56.822Z,50.57
2023-03-16T06:55:23.985Z,50.79
2023-03-16T06:57:51.012Z,50.78
2023-03-16T07:00:19.364Z,50.38
2023-03-16T07:02:46.447Z,50.38
2023-03-16T07:05:18.135Z,50.09
2023-03-16T07:07:47.170Z,50.47
2023-03-16T07:10:17.864Z,50.79
2023-03-16T07:12:46.083Z,49.84
2023-03-16T07:15:14.014Z,49.90
2023-03-16T07:17:42.762Z,49.78
2023-03-16T07:20:11.668Z,50.31
2023-03-16T07:22:40.435Z,49.76
2023-03-16T07:25:11.643Z,48.88
2023-03-16T07:27:45.700Z,48.89
2023-03-16T07:30:16.418Z,48.81
2023-03-16T07:32:46.387Z,48.79
2023-03-16T07:35:14.659Z,49.03
2023-03-16T07:37:42.228Z,48.69
2023-03-16T07:40:10.881Z,48.92
2023-03-16T07:42:38.521Z,48.73
2023-03-16T07:45:10.570Z,48.62
2023-03-16T07:47:38.208Z,48.50
2023-03-16T07:50:27.850Z,48.62
2023-03-16T07:52:55.942Z,48.56
2023-03-16T07:55:22.967Z,48.74
2023-03-16T07:57:51.965Z,48.72
2023-03-16T08:00:26.561Z,48.04
2023-03-16T08:02:55.374Z,47.89
2023-03-16T08:05:22.648Z,47.75
2023-03-16T08:07:57.502Z,47.83
2023-03-16T08:10:28.418Z,47.57
2023-03-16T08:13:05.059Z,47.51
2023-03-16T08:15:34.123Z,47.25
2023-03-16T08:18:08.820Z,47.49
2023-03-16T08:20:36.254Z,47.21
2023-03-16T08:23:05.763Z,46.96
2023-03-16T08:25:38.981Z,46.38
2023-03-16T08:28:16.168Z,45.74
2023-03-16T08:30:48.950Z,45.09
2023-03-16T08:33:38.820Z,44.74
2023-03-16T08:36:08.776Z,44.06
2023-03-16T08:38:36.226Z,43.64
2023-03-16T08:41:08.577Z,42.26
2023-03-16T08:43:37.648Z,42.25
2023-03-16T08:46:05.734Z,41.81
2023-03-16T08:48:46.724Z,40.84
2023-03-16T08:51:15.011Z,40.53
2023-03-16T08:53:44.164Z,42.31
2023-03-16T08:56:13.750Z,42.60
2023-03-16T08:58:45.717Z,42.97
2023-03-16T09:01:15.644Z,42.58
2023-03-16T09:03:45.884Z,43.71
2023-03-16T09:06:15.657Z,43.79
2023-03-16T09:08:45.574Z,43.51
2023-03-16T09:11:14.984Z,42.63
2023-03-16T09:13:45.586Z,42.54
2023-03-16T09:16:15.979Z,42.77
2023-03-16T09:18:43.694Z,41.74
2023-03-16T09:21:14.301Z,41.48
2023-03-16T09:23:43.260Z,40.64
2023-03-16T09:26:12.988Z,39.58
2023-03-16T09:28:42.541Z,38.29
2023-03-16T09:31:23.234Z,38.37
2023-03-16T09:33:50.501Z,38.34
2023-03-16T09:36:17.826Z,37.18
2023-03-16T09:38:45.159Z,37.08
2023-03-16T09:41:36.987Z,35.95
2023-03-16T09:44:18.145Z,35.62
2023-03-16T09:46:49.169Z,36.04
2023-03-16T09:49:21.217Z,35.80
2023-03-16T09:52:00.548Z,35.05
2023-03-16T09:54:48.484Z,34.52
2023-03-16T09:57:26.544Z,34.05
2023-03-16T09:59:55.172Z,33.79
2023-03-16T10:02:47.371Z,31.97
2023-03-16T10:05:17.378Z,32.71
2023-03-16T10:08:06.006Z,33.30
2023-03-16T10:11:01.155Z,33.69
2023-03-16T10:13:28.243Z,33.47
2023-03-16T10:15:59.830Z,33.68
2023-03-16T10:18:33.342Z,34.52
2023-03-16T10:21:00.645Z,34.48
2023-03-16T10:23:27.701Z,34.58
2023-03-16T10:25:56.160Z,35.53
2023-03-16T10:28:28.747Z,34.11
2023-03-16T10:31:00.134Z,33.62
2023-03-16T10:33:30.424Z,33.96
2023-03-16T10:36:05.846Z,34.48
2023-03-16T10:38:50.700Z,36.23
2023-03-16T10:41:23.127Z,35.72
2023-03-16T10:44:07.750Z,35.39
2023-03-16T10:46:40.949Z,34.96
2023-03-16T10:49:43.711Z,35.64
2023-03-16T10:52:23.705Z,35.09
2023-03-16T10:55:01.970Z,35.61
2023-03-16T10:57:42.928Z,35.08
2023-03-16T11:00:24.980Z,33.53
2023-03-16T11:02:57.265Z,32.10
2023-03-16T11:05:33.940Z,33.21
2023-03-16T11:08:10.535Z,33.71
2023-03-16T11:10:49.394Z,33.32
2023-03-16T11:13:21.963Z,32.70
2023-03-16T11:16:07.831Z,31.26
2023-03-16T11:18:59.654Z,31.62
2023-03-16T11:22:06.670Z,30.61
2023-03-16T11:25:11.055Z,31.25
2023-03-16T11:28:05.501Z,31.25
2023-03-16T11:30:46.390Z,31.27
2023-03-16T11:33:15.557Z,31.32
2023-03-16T11:35:56.429Z,30.74
2023-03-16T11:38:37.851Z,29.84
2023-03-16T11:41:50.760Z,30.71
2023-03-16T11:44:20.494Z,29.88
2023-03-16T11:47:08.470Z,29.82
2023-03-16T11:49:48.204Z,29.24
2023-03-16T11:52:33.531Z,29.23
2023-03-16T11:55:29.009Z,29.30
2023-03-16T11:58:17.473Z,30.06
2023-03-16T12:01:16.631Z,28.93
2023-03-16T12:04:21.566Z,29.30
2023-03-16T12:07:13.672Z,28.54
2023-03-16T12:09:44.737Z,29.03
2023-03-16T12:12:47.925Z,28.70
2023-03-16T12:16:07.880Z,27.78
2023-03-16T12:18:47.999Z,27.35
2023-03-16T12:21:23.167Z,27.42
2023-03-16T12:23:50.250Z,28.42
2023-03-16T12:26:19.795Z,27.75
2023-03-16T12:28:48.686Z,28.28
2023-03-16T12:31:47.048Z,27.61
2023-03-16T12:34:20.352Z,27.88
2023-03-16T12:37:15.107Z,27.59
2023-03-16T12:40:09.388Z,29.01
2023-03-16T12:42:49.088Z,28.24
2023-03-16T12:45:51.995Z,29.19
2023-03-16T12:48:30.133Z,28.61
2023-03-16T12:51:00.546Z,28.59
2023-03-16T12:53:47.119Z,28.16
2023-03-16T12:56:18.090Z,28.40
2023-03-16T12:58:50.831Z,28.89
2023-03-16T13:01:21.964Z,29.44
2023-03-16T13:03:51.211Z,29.83
2023-03-16T13:06:24.519Z,30.22
2023-03-16T13:09:00.031Z,29.49
2023-03-16T13:11:28.833Z,29.94
2023-03-16T13:14:01.930Z,29.39
2023-03-16T13:16:32.212Z,29.28
2023-03-16T13:19:01.023Z,29.30
2023-03-16T13:21:40.381Z,30.02
2023-03-16T13:24:14.012Z,29.84
2023-03-16T13:26:53.927Z,30.16
2023-03-16T13:29:33.489Z,30.41
2023-03-16T13:32:06.587Z,30.02
2023-03-16T13:34:45.079Z,29.29
2023-03-16T13:37:16.870Z,29.58
2023-03-16T13:39:55.238Z,28.86
2023-03-16T13:42:24.653Z,29.22
2023-03-16T13:44:57.834Z,30.79
2023-03-16T13:47:29.277Z,30.90
2023-03-16T13:50:00.891Z,31.32
2023-03-16T13:52:36.999Z,32.56
2023-03-16T13:55:15.618Z,31.27
2023-03-16T13:57:45.566Z,31.08
2023-03-16T14:00:19.035Z,31.67
2023-03-16T14:02:47.737Z,31.93
2023-03-16T14:05:22.859Z,31.72
2023-03-16T14:07:52.966Z,31.91
2023-03-16T14:10:21.862Z,31.94
2023-03-16T14:13:10.909Z,31.69
2023-03-16T14:15:39.022Z,32.43
2023-03-16T14:18:22.831Z,31.89
2023-03-16T14:20:55.504Z,31.89
2023-03-16T14:23:37.307Z,33.45
2023-03-16T14:26:12.852Z,34.50
2023-03-16T14:28:40.222Z,35.32
2023-03-16T14:31:13.520Z,35.98
2023-03-16T14:33:43.932Z,36.11
2023-03-16T14:36:17.728Z,37.18
2023-03-16T14:38:49.146Z,36.69
2023-03-16T14:41:24.656Z,36.24
2023-03-16T14:43:59.765Z,36.11
2023-03-16T14:46:37.793Z,36.60
2023-03-16T14:49:20.767Z,34.32
2023-03-16T14:51:50.555Z,35.07
2023-03-16T14:54:22.022Z,36.36
2023-03-16T14:56:55.004Z,35.34
2023-03-16T14:59:22.609Z,36.34
2023-03-16T15:01:51.003Z,36.61
2023-03-16T15:04:25.335Z,36.48
2023-03-16T15:06:52.640Z,37.41
2023-03-16T15:09:38.301Z,38.83
2023-03-16T15:12:14.585Z,39.27
2023-03-16T15:15:00.135Z,39.50
2023-03-16T15:17:27.802Z,38.72
2023-03-16T15:19:55.266Z,38.72
2023-03-16T15:22:37.707Z,40.75
2023-03-16T15:25:23.185Z,41.79
2023-03-16T15:27:51.491Z,40.56
2023-03-16T15:30:28.867Z,40.38
2023-03-16T15:32:56.834Z,40.14
2023-03-16T15:35:27.914Z,41.18
2023-03-16T15:37:55.241Z,40.53
2023-03-16T15:40:29.783Z,40.88
2023-03-16T15:42:57.896Z,41.00
2023-03-16T15:45:25.781Z,41.34
2023-03-16T15:47:54.023Z,44.04
2023-03-16T15:50:24.845Z,43.81
2023-03-16T15:53:09.072Z,44.81
2023-03-16T15:55:42.107Z,45.35
2023-03-16T15:58:24.527Z,46.06
2023-03-16T16:00:55.923Z,45.43
2023-03-16T16:03:28.049Z,46.55
2023-03-16T16:05:55.849Z,45.44
2023-03-16T16:08:23.077Z,46.45
2023-03-16T16:10:51.828Z,45.85
2023-03-16T16:13:44.304Z,46.55
2023-03-16T16:16:18.150Z,46.93
2023-03-16T16:18:47.748Z,46.13
2023-03-16T16:21:18.161Z,45.81
2023-03-16T16:23:46.320Z,47.15
2023-03-16T16:26:18.983Z,47.99
2023-03-16T16:28:47.825Z,45.86
2023-03-16T16:31:15.113Z,46.31
2023-03-16T16:33:42.189Z,46.34
2023-03-16T16:36:19.296Z,45.93
2023-03-16T16:38:47.880Z,45.84
2023-03-16T16:41:28.514Z,46.48
2023-03-16T16:43:56.521Z,46.08
2023-03-16T16:46:28.847Z,46.78
2023-03-16T16:49:07.336Z,46.23
2023-03-16T16:51:34.666Z,46.59
2023-03-16T16:54:02.392Z,46.05
2023-03-16T16:56:32.659Z,46.46
2023-03-16T16:59:11.170Z,47.13
2023-03-16T17:01:39.199Z,47.97
2023-03-16T17:04:13.618Z,48.16
2023-03-16T17:06:41.615Z,48.82
2023-03-16T17:09:09.995Z,48.64
2023-03-16T17:11:37.770Z,47.49
2023-03-16T17:14:07.908Z,47.68
2023-03-16T17:16:38.146Z,48.31
2023-03-16T17:19:14.859Z,47.99
2023-03-16T17:21:42.200Z,47.69
2023-03-16T17:24:09.486Z,47.82
2023-03-16T17:26:42.974Z,48.59
2023-03-16T17:29:31.956Z,48.86
2023-03-16T17:32:08.695Z,48.33
2023-03-16T17:34:36.103Z,49.38
2023-03-16T17:37:03.054Z,50.50
2023-03-16T17:39:32.912Z,50.13
2023-03-16T17:42:02.830Z,49.67
2023-03-16T17:44:53.507Z,50.58
2023-03-16T17:47:23.242Z,49.39
2023-03-16T17:49:51.567Z,49.20
2023-03-16T17:52:23.534Z,49.11
2023-03-16T17:54:54.189Z,49.54
2023-03-16T17:57:33.740Z,50.97
2023-03-16T18:00:02.586Z,50.05
2023-03-16T18:02:47.316Z,49.96
2023-03-16T18:05:25.510Z,51.24
2023-03-16T18:07:53.931Z,52.31
2023-03-16T18:10:27.596Z,51.71
2023-03-16T18:13:09.038Z,51.21
2023-03-16T18:15:41.813Z,51.17
2023-03-16T18:18:18.161Z,51.32
2023-03-16T18:20:46.213Z,50.46
2023-03-16T18:23:33.854Z,51.83
2023-03-16T18:26:04.092Z,51.58
2023-03-16T18:28:32.283Z,52.34
2023-03-16T18:31:09.357Z,51.57
2023-03-16T18:33:39.664Z,50.62
2023-03-16T18:36:16.174Z,49.23
2023-03-16T18:38:47.085Z,48.80
2023-03-16T18:41:18.814Z,48.61
2023-03-16T18:43:47.334Z,49.49
2023-03-16T18:46:24.277Z,50.01
2023-03-16T18:48:54.093Z,51.32
2023-03-16T18:51:30.173Z,51.08
2023-03-16T18:53:57.828Z,52.76
2023-03-16T18:56:27.320Z,51.85
2023-03-16T18:58:56.313Z,52.74
2023-03-16T19:01:33.401Z,53.92
2023-03-16T19:04:02.282Z,52.85
2023-03-16T19:06:35.063Z,53.64
2023-03-16T19:09:15.011Z,53.68
2023-03-16T19:11:44.243Z,53.51
2023-03-16T19:14:20.228Z,54.01
2023-03-16T19:16:48.671Z,53.78
2023-03-16T19:19:15.938Z,54.14
2023-03-16T19:21:44.170Z,53.19
2023-03-16T19:24:30.987Z,54.20
2023-03-16T19:26:58.856Z,53.80
2023-03-16T19:29:34.542Z,54.75
2023-03-16T19:32:02.685Z,54.16
2023-03-16T19:34:30.025Z,54.46
2023-03-16T19:36:58.719Z,54.40
2023-03-16T19:39:28.063Z,54.69
2023-03-16T19:42:01.672Z,54.96
2023-03-16T19:44:29.401Z,54.97
2023-03-16T19:46:57.088Z,55.42
2023-03-16T19:49:27.397Z,55.06
2023-03-16T19:51:56.022Z,55.64
2023-03-16T19:54:27.371Z,55.37
2023-03-16T19:56:56.410Z,55.26
2023-03-16T19:59:27.115Z,55.22
2023-03-16T20:01:54.182Z,55.80
2023-03-16T20:04:24.024Z,56.12
2023-03-16T20:06:52.273Z,55.43
2023-03-16T20:09:19.978Z,55.50
2023-03-16T20:11:48.921Z,56.41
2023-03-16T20:14:31.072Z,56.49
2023-03-16T20:17:01.302Z,56.11
2023-03-16T20:19:29.217Z,55.85
2023-03-16T20:21:56.721Z,55.90
2023-03-16T20:24:29.308Z,55.80
2023-03-16T20:26:56.952Z,56.03
2023-03-16T20:29:31.406Z,56.33
2023-03-16T20:32:00.234Z,56.83
2023-03-16T20:34:31.398Z,56.38
2023-03-16T20:36:59.759Z,56.74
2023-03-16T20:39:28.477Z,56.38
2023-03-16T20:41:57.456Z,56.21
2023-03-16T20:44:25.590Z,57.15
2023-03-16T20:46:52.765Z,56.14
2023-03-16T20:49:22.904Z,56.16
2023-03-16T20:51:51.634Z,56.23
2023-03-16T20:54:19.407Z,56.20
2023-03-16T20:56:47.074Z,56.56
2023-03-16T20:59:20.515Z,56.31
2023-03-16T21:01:48.198Z,56.02
2023-03-16T21:04:21.094Z,55.85
2023-03-16T21:06:51.543Z,55.81
2023-03-16T21:09:20.222Z,55.23
2023-03-16T21:11:48.196Z,55.06
2023-03-16T21:14:22.218Z,55.56
2023-03-16T21:16:50.204Z,55.55
2023-03-16T21:19:20.897Z,56.04
2023-03-16T21:21:48.092Z,55.57
2023-03-16T21:24:16.213Z,56.06
2023-03-16T21:26:44.934Z,55.41
2023-03-16T21:29:16.549Z,55.86
2023-03-16T21:31:44.015Z,55.77
2023-03-16T21:34:30.870Z,56.09
2023-03-16T21:37:00.335Z,55.69
2023-03-16T21:39:29.714Z,55.88
2023-03-16T21:41:56.756Z,55.57
2023-03-16T21:44:23.992Z,55.58
2023-03-16T21:46:51.265Z,55.47
2023-03-16T21:49:21.096Z,55.55
2023-03-16T21:51:50.493Z,55.90
2023-03-16T21:54:19.372Z,56.10
2023-03-16T21:56:48.076Z,56.50
2023-03-16T21:59:15.788Z,56.15
2023-03-16T22:02:00.426Z,56.03
2023-03-16T22:04:28.906Z,55.94
2023-03-16T22:06:55.972Z,55.84
2023-03-16T22:09:25.115Z,56.18
2023-03-16T22:11:52.415Z,55.86
2023-03-16T22:14:19.576Z,56.65
2023-03-16T22:16:46.897Z,56.61
2023-03-16T22:19:14.835Z,55.89
2023-03-16T22:21:44.440Z,55.71
2023-03-16T22:24:18.165Z,56.15
2023-03-16T22:26:46.531Z,55.43
2023-03-16T22:29:25.504Z,55.68
2023-03-16T22:32:07.062Z,56.34
2023-03-16T22:34:49.941Z,56.30
2023-03-16T22:37:24.338Z,56.30
2023-03-16T22:39:51.941Z,55.70
2023-03-16T22:42:39.527Z,55.90
2023-03-16T22:45:27.758Z,56.06
2023-03-16T22:47:56.704Z,55.79
2023-03-16T22:50:26.808Z,55.91
2023-03-16T22:52:58.125Z,55.71
2023-03-16T22:55:30.638Z,55.78
2023-03-16T22:58:27.368Z,55.58
2023-03-16T23:00:55.329Z,55.62
2023-03-16T23:03:23.961Z,55.26
2023-03-16T23:05:53.168Z,55.42
2023-03-16T23:08:23.531Z,55.61
2023-03-16T23:10:54.587Z,55.13
2023-03-16T23:13:25.336Z,55.56
2023-03-16T23:15:53.659Z,55.22
2023-03-16T23:18:24.272Z,55.60
2023-03-16T23:20:52.800Z,55.80
2023-03-16T23:23:20.397Z,55.71
2023-03-16T23:25:48.377Z,56.04
2023-03-16T23:28:23.232Z,56.24
2023-03-16T23:30:50.794Z,56.20
2023-03-16T23:33:17.991Z,56.56
2023-03-16T23:35:46.904Z,55.31
2023-03-16T23:38:14.811Z,54.74
2023-03-16T23:40:41.953Z,54.36
2023-03-16T23:43:09.356Z,53.82
2023-03-16T23:45:46.171Z,53.38
2023-03-16T23:48:19.574Z,53.33
2023-03-16T23:50:50.183Z,53.60
2023-03-16T23:53:19.143Z,53.61
2023-03-16T23:55:48.849Z,53.77
2023-03-16T23:58:16.763Z,53.08
